createdAt,value
2022-12-29T00:00:16.978Z,7.95
2022-12-29T00:02:45.079Z,7.97
2022-12-29T00:05:12.788Z,7.20
2022-12-29T00:07:40.319Z,7.57
2022-12-29T00:10:08.854Z,12.75
2022-12-29T00:12:59.756Z,7.75
2022-12-29T00:15:38.421Z,6.22
2022-12-29T00:18:07.160Z,6.07
2022-12-29T00:20:55.829Z,12.27
2022-12-29T00:23:41.963Z,8.25
2022-12-29T00:26:34.682Z,7.40
2022-12-29T00:29:20.564Z,7.05
2022-12-29T00:32:11.349Z,8.68
2022-12-29T00:34:57.387Z,5.80
2022-12-29T00:37:44.786Z,6.88
2022-12-29T00:40:31.639Z,6.00
2022-12-29T00:43:17.575Z,3.58
2022-12-29T00:45:45.563Z,7.30
2022-12-29T00:48:13.059Z,7.45
2022-12-29T00:50:43.137Z,9.90
2022-12-29T00:53:10.627Z,9.50
2022-12-29T00:55:39.362Z,6.60
2022-12-29T00:58:09.281Z,7.72
2022-12-29T01:00:38.479Z,6.65
2022-12-29T01:03:05.982Z,7.32
2022-12-29T01:05:37.590Z,8.43
2022-12-29T01:08:05.414Z,9.10
2022-12-29T01:10:32.975Z,5.95
2022-12-29T01:13:01.300Z,12.00
2022-12-29T01:15:28.694Z,9.00
2022-12-29T01:17:56.121Z,6.63
2022-12-29T01:20:23.521Z,9.73
2022-12-29T01:22:50.903Z,7.25
2022-12-29T01:25:18.461Z,8.85
2022-12-29T01:27:45.896Z,9.82
2022-12-29T01:30:13.609Z,9.52
2022-12-29T01:32:41.740Z,7.40
2022-12-29T01:35:09.709Z,7.88
2022-12-29T01:37:37.886Z,8.65
2022-12-29T01:40:05.835Z,7.90
2022-12-29T01:42:33.794Z,11.35
2022-12-29T01:45:12.442Z,8.25
2022-12-29T01:48:07.329Z,9.43
2022-12-29T01:50:37.657Z,7.97
2022-12-29T01:53:17.576Z,10.90
2022-12-29T01:55:50.911Z,9.43
2022-12-29T01:58:20.473Z,8.75
2022-12-29T02:00:48.100Z,6.80
2022-12-29T02:03:16.561Z,9.35
2022-12-29T02:05:51.650Z,7.22
2022-12-29T02:08:19.620Z,7.30
2022-12-29T02:10:47.041Z,11.85
2022-12-29T02:13:17.361Z,8.55
2022-12-29T02:15:51.644Z,11.13
2022-12-29T02:18:25.244Z,14.43
2022-12-29T02:21:07.653Z,10.93
2022-12-29T02:23:38.050Z,10.82
2022-12-29T02:26:33.175Z,10.60
2022-12-29T02:29:15.182Z,15.85
2022-12-29T02:31:45.548Z,9.77
2022-12-29T02:34:19.182Z,8.77
2022-12-29T02:37:06.098Z,12.43
2022-12-29T02:39:36.495Z,8.00
2022-12-29T02:42:24.582Z,6.75
2022-12-29T02:44:58.471Z,6.18
2022-12-29T02:47:47.628Z,10.25
2022-12-29T02:50:15.051Z,11.90
2022-12-29T02:52:48.072Z,9.45
2022-12-29T02:55:15.543Z,18.60
2022-12-29T02:57:43.848Z,11.52
2022-12-29T03:00:14.822Z,18.60
2022-12-29T03:03:41.028Z,10.80
2022-12-29T03:06:52.995Z,7.60
2022-12-29T03:10:02.389Z,13.15
2022-12-29T03:12:54.676Z,19.17
2022-12-29T03:15:42.863Z,8.80
2022-12-29T03:19:00.064Z,7.47
2022-12-29T03:22:01.960Z,12.75
2022-12-29T03:24:36.659Z,15.55
2022-12-29T03:27:05.355Z,16.00
2022-12-29T03:29:36.370Z,15.88
2022-12-29T03:32:04.010Z,14.43
2022-12-29T03:34:31.437Z,14.15
2022-12-29T03:37:01.972Z,15.23
2022-12-29T03:39:29.868Z,20.50
2022-12-29T03:42:00.910Z,10.80
2022-12-29T03:44:38.665Z,10.48
2022-12-29T03:47:06.524Z,8.10
2022-12-29T03:49:35.902Z,13.07
2022-12-29T03:52:03.701Z,11.88
2022-12-29T03:54:31.694Z,13.23
2022-12-29T03:56:59.347Z,11.65
2022-12-29T03:59:27.052Z,9.93
2022-12-29T04:01:54.588Z,12.77
2022-12-29T04:04:22.160Z,13.80
2022-12-29T04:06:49.631Z,14.00
2022-12-29T04:09:18.452Z,10.90
2022-12-29T04:11:46.245Z,11.93
2022-12-29T04:14:13.916Z,17.67
2022-12-29T04:16:42.038Z,13.73
2022-12-29T04:19:09.628Z,16.17
2022-12-29T04:21:37.074Z,15.30
2022-12-29T04:24:07.527Z,14.82
2022-12-29T04:26:35.100Z,9.50
2022-12-29T04:29:02.477Z,14.80
2022-12-29T04:31:30.217Z,18.88
2022-12-29T04:33:58.391Z,13.82
2022-12-29T04:36:29.919Z,11.05
2022-12-29T04:38:57.848Z,21.73
2022-12-29T04:41:25.490Z,13.90
2022-12-29T04:43:52.832Z,12.20
2022-12-29T04:46:20.947Z,16.13
2022-12-29T04:48:48.911Z,9.93
2022-12-29T04:51:16.347Z,16.42
2022-12-29T04:53:43.799Z,11.48
2022-12-29T04:56:11.333Z,17.13
2022-12-29T04:58:38.812Z,13.38
2022-12-29T05:01:06.522Z,11.63
2022-12-29T05:03:35.032Z,10.23
2022-12-29T05:06:02.600Z,10.20
2022-12-29T05:08:30.140Z,13.43
2022-12-29T05:10:57.587Z,13.73
2022-12-29T05:13:25.047Z,15.52
2022-12-29T05:15:53.348Z,11.30
2022-12-29T05:18:21.013Z,16.23
2022-12-29T05:20:48.706Z,15.60
2022-12-29T05:23:16.857Z,13.65
2022-12-29T05:25:46.988Z,19.23
2022-12-29T05:28:14.616Z,11.80
2022-12-29T05:30:42.300Z,23.80
2022-12-29T05:33:12.784Z,18.08
2022-12-29T05:35:40.956Z,18.75
2022-12-29T05:38:08.469Z,18.60
2022-12-29T05:40:35.953Z,15.60
2022-12-29T05:43:04.756Z,16.15
2022-12-29T05:45:32.292Z,16.48
2022-12-29T05:51:08.388Z,11.73
2022-12-29T05:53:35.906Z,21.52
2022-12-29T05:56:03.644Z,19.63
2022-12-29T05:58:31.437Z,14.60
2022-12-29T06:01:02.051Z,14.82
2022-12-29T06:03:29.943Z,14.60
2022-12-29T06:05:57.691Z,13.23
2022-12-29T06:08:25.157Z,17.48
2022-12-29T06:10:53.078Z,16.77
2022-12-29T06:13:21.031Z,15.35
2022-12-29T06:15:51.946Z,21.05
2022-12-29T06:18:20.283Z,13.68
2022-12-29T06:20:49.234Z,11.13
2022-12-29T06:23:17.679Z,20.35
2022-12-29T06:25:45.696Z,19.10
2022-12-29T06:28:13.187Z,21.92
2022-12-29T06:30:40.943Z,21.02
2022-12-29T06:33:09.555Z,16.27
2022-12-29T06:35:37.179Z,17.10
2022-12-29T06:38:04.952Z,19.35
2022-12-29T06:40:32.720Z,19.17
2022-12-29T06:43:03.698Z,16.38
2022-12-29T06:45:31.315Z,14.38
2022-12-29T06:47:58.967Z,9.20
2022-12-29T06:50:26.830Z,21.20
2022-12-29T06:52:54.569Z,10.75
2022-12-29T06:55:22.499Z,11.00
2022-12-29T06:57:50.012Z,10.73
2022-12-29T07:00:22.745Z,13.45
2022-12-29T07:02:51.447Z,12.02
2022-12-29T07:05:19.223Z,15.52
2022-12-29T07:07:47.038Z,16.25
2022-12-29T07:10:17.352Z,11.38
2022-12-29T07:12:46.093Z,10.73
2022-12-29T07:15:13.985Z,16.65
2022-12-29T07:17:42.143Z,12.50
2022-12-29T07:20:10.097Z,12.40
2022-12-29T07:22:38.042Z,13.48
2022-12-29T07:25:08.119Z,10.00
2022-12-29T07:27:35.920Z,9.52
2022-12-29T07:30:03.588Z,19.17
2022-12-29T07:32:34.810Z,17.20
2022-12-29T07:35:02.591Z,13.63
2022-12-29T07:37:30.719Z,14.60
2022-12-29T07:39:58.293Z,10.50
2022-12-29T07:42:25.911Z,8.82
2022-12-29T07:44:53.790Z,8.85
2022-12-29T07:47:21.402Z,13.95
2022-12-29T07:49:48.925Z,19.70
2022-12-29T07:52:16.483Z,13.07
2022-12-29T07:54:44.067Z,12.02
2022-12-29T07:57:11.571Z,14.32
2022-12-29T07:59:39.304Z,14.80
2022-12-29T08:02:07.086Z,11.48
2022-12-29T08:04:35.407Z,17.25
2022-12-29T08:07:02.835Z,15.30
2022-12-29T08:09:30.622Z,13.30
2022-12-29T08:11:58.164Z,12.27
2022-12-29T08:14:25.740Z,9.95
2022-12-29T08:16:53.307Z,8.77
2022-12-29T08:19:21.014Z,10.40
2022-12-29T08:21:48.385Z,16.20
2022-12-29T08:24:15.878Z,7.95
2022-12-29T08:26:43.209Z,10.60
2022-12-29T08:29:10.633Z,9.30
2022-12-29T08:31:38.448Z,9.35
2022-12-29T08:34:06.900Z,18.95
2022-12-29T08:36:37.851Z,8.32
2022-12-29T08:39:05.388Z,10.35
2022-12-29T08:41:33.345Z,11.05
2022-12-29T08:44:01.635Z,11.95
2022-12-29T08:46:29.241Z,6.35
2022-12-29T08:48:57.069Z,10.20
2022-12-29T08:51:25.168Z,13.02
2022-12-29T08:53:53.037Z,13.27
2022-12-29T08:56:20.693Z,14.52
2022-12-29T08:58:48.777Z,19.73
2022-12-29T09:01:16.327Z,16.60
2022-12-29T09:04:13.699Z,6.68
2022-12-29T09:06:35.116Z,10.65
2022-12-29T09:09:05.575Z,9.38
2022-12-29T09:11:34.427Z,13.38
2022-12-29T09:14:01.894Z,13.85
2022-12-29T09:16:29.462Z,8.95
2022-12-29T09:18:57.002Z,7.72
2022-12-29T09:21:24.482Z,6.25
2022-12-29T09:23:51.908Z,11.07
2022-12-29T09:26:19.547Z,6.50
2022-12-29T09:28:48.155Z,8.85
2022-12-29T09:31:15.779Z,14.32
2022-12-29T09:33:43.286Z,15.95
2022-12-29T09:36:10.720Z,15.65
2022-12-29T09:38:38.139Z,15.30
2022-12-29T09:41:44.301Z,12.13
2022-12-29T09:44:21.531Z,18.13
2022-12-29T09:46:50.533Z,13.98
2022-12-29T09:49:40.872Z,15.48
2022-12-29T09:52:30.567Z,13.18
2022-12-29T09:55:03.868Z,8.60
2022-12-29T09:57:53.992Z,7.97
2022-12-29T10:00:22.795Z,10.65
2022-12-29T10:02:59.362Z,9.65
2022-12-29T10:05:34.604Z,18.02
2022-12-29T10:08:15.823Z,14.20
2022-12-29T10:10:58.144Z,10.93
2022-12-29T10:13:40.101Z,11.70
2022-12-29T10:16:15.145Z,10.43
2022-12-29T10:18:55.377Z,12.52
2022-12-29T10:21:50.613Z,11.85
2022-12-29T10:24:18.007Z,7.93
2022-12-29T10:26:45.524Z,14.13
2022-12-29T10:29:17.602Z,7.65
2022-12-29T10:31:48.632Z,5.90
2022-12-29T10:34:36.181Z,4.65
2022-12-29T10:37:06.571Z,5.93
2022-12-29T10:39:50.724Z,9.93
2022-12-29T10:42:37.903Z,7.80
2022-12-29T10:45:06.498Z,7.95
2022-12-29T10:47:37.626Z,8.05
2022-12-29T10:50:05.993Z,7.95
2022-12-29T10:52:34.027Z,14.45
2022-12-29T10:55:06.286Z,11.35
2022-12-29T10:57:52.235Z,8.45
2022-12-29T11:00:24.311Z,12.18
2022-12-29T11:03:10.236Z,14.98
2022-12-29T11:05:46.396Z,12.07
2022-12-29T11:08:19.170Z,6.75
2022-12-29T11:10:47.316Z,5.57
2022-12-29T11:13:19.724Z,11.20
2022-12-29T11:15:51.285Z,7.93
2022-12-29T11:18:32.985Z,5.88
2022-12-29T11:21:02.396Z,5.93
2022-12-29T11:23:29.959Z,6.07
2022-12-29T11:26:07.717Z,8.05
2022-12-29T11:28:35.158Z,6.25
2022-12-29T11:31:04.082Z,12.88
2022-12-29T11:33:32.167Z,11.98
2022-12-29T11:36:04.056Z,8.43
2022-12-29T11:38:37.449Z,7.60
2022-12-29T11:41:04.964Z,8.10
2022-12-29T11:43:35.272Z,7.78
2022-12-29T11:46:05.787Z,11.05
2022-12-29T11:48:40.559Z,6.63
2022-12-29T11:51:08.227Z,6.53
2022-12-29T11:53:59.701Z,7.47
2022-12-29T11:56:42.215Z,4.65
2022-12-29T11:59:28.068Z,7.97
2022-12-29T12:01:56.076Z,11.27
2022-12-29T12:04:25.473Z,8.95
2022-12-29T12:06:59.744Z,6.32
2022-12-29T12:09:49.082Z,6.82
2022-12-29T12:12:36.565Z,7.32
2022-12-29T12:15:04.305Z,7.93
2022-12-29T12:17:39.432Z,5.03
2022-12-29T12:20:39.761Z,5.72
2022-12-29T12:23:28.886Z,7.47
2022-12-29T12:26:05.637Z,7.10
2022-12-29T12:28:36.710Z,9.77
2022-12-29T12:31:07.383Z,5.30
2022-12-29T12:33:37.667Z,6.55
2022-12-29T12:36:29.996Z,7.38
2022-12-29T12:39:13.357Z,4.78
2022-12-29T12:42:22.609Z,8.25
2022-12-29T12:44:56.155Z,7.82
2022-12-29T12:47:45.193Z,4.75
2022-12-29T12:50:40.649Z,6.03
2022-12-29T12:53:35.863Z,5.05
2022-12-29T12:56:56.888Z,8.35
2022-12-29T12:59:42.341Z,5.10
2022-12-29T13:02:51.243Z,7.15
2022-12-29T13:05:49.623Z,9.70
2022-12-29T13:08:39.438Z,4.57
2022-12-29T13:11:40.363Z,5.10
2022-12-29T13:14:16.756Z,4.38
2022-12-29T13:17:03.279Z,6.97
2022-12-29T13:19:34.445Z,6.40
2022-12-29T13:22:11.028Z,8.13
2022-12-29T13:24:56.728Z,6.50
2022-12-29T13:27:24.105Z,10.52
2022-12-29T13:30:03.209Z,8.90
2022-12-29T13:32:48.934Z,6.65
2022-12-29T13:35:28.813Z,7.43
2022-12-29T13:38:00.191Z,11.10
2022-12-29T13:40:28.795Z,7.95
2022-12-29T13:42:56.641Z,15.95
2022-12-29T13:45:25.513Z,8.20
2022-12-29T13:48:27.846Z,19.92
2022-12-29T13:50:59.591Z,9.10
2022-12-29T13:53:33.925Z,10.38
2022-12-29T13:56:14.234Z,9.82
2022-12-29T13:58:51.840Z,6.88
2022-12-29T14:01:22.277Z,13.27
2022-12-29T14:03:51.442Z,8.05
2022-12-29T14:06:29.808Z,9.73
2022-12-29T14:09:00.892Z,9.18
2022-12-29T14:11:39.255Z,7.95
2022-12-29T14:14:23.824Z,6.03
2022-12-29T14:16:51.262Z,5.30
2022-12-29T14:19:30.045Z,6.57
2022-12-29T14:21:59.685Z,5.57
2022-12-29T14:24:34.236Z,10.55
2022-12-29T14:27:10.874Z,7.53
2022-12-29T14:29:41.289Z,6.57
2022-12-29T14:32:35.224Z,6.38
2022-12-29T14:35:41.407Z,7.03
2022-12-29T14:38:18.783Z,8.95
2022-12-29T14:40:47.133Z,12.23
2022-12-29T14:43:24.792Z,9.65
2022-12-29T14:46:02.206Z,7.78
2022-12-29T14:48:36.742Z,7.78
2022-12-29T14:51:29.337Z,6.95
2022-12-29T14:53:56.789Z,8.38
2022-12-29T14:56:29.442Z,8.38
2022-12-29T14:59:04.200Z,9.38
2022-12-29T15:01:49.610Z,14.82
2022-12-29T15:04:22.492Z,8.15
2022-12-29T15:06:50.496Z,17.58
2022-12-29T15:09:38.232Z,12.68
2022-12-29T15:12:16.472Z,10.25
2022-12-29T15:14:52.524Z,9.13
2022-12-29T15:17:30.136Z,8.35
2022-12-29T15:19:59.260Z,9.80
2022-12-29T15:22:26.873Z,9.20
2022-12-29T15:24:55.218Z,8.32
2022-12-29T15:27:24.279Z,12.63
2022-12-29T15:30:04.497Z,11.05
2022-12-29T15:32:41.579Z,8.27
2022-12-29T15:35:25.321Z,12.43
2022-12-29T15:37:52.943Z,8.38
2022-12-29T15:40:25.316Z,9.20
2022-12-29T15:43:06.910Z,9.60
2022-12-29T15:48:02.089Z,9.02
2022-12-29T15:50:31.854Z,11.48
2022-12-29T15:53:00.085Z,8.93
2022-12-29T15:55:35.272Z,5.95
2022-12-29T15:58:04.354Z,5.32
2022-12-29T16:00:38.333Z,5.35
2022-12-29T16:03:06.533Z,4.95
2022-12-29T16:05:39.473Z,5.03
2022-12-29T16:08:28.578Z,6.85
2022-12-29T16:10:57.474Z,6.53
2022-12-29T16:13:40.074Z,10.02
2022-12-29T16:16:29.814Z,8.20
2022-12-29T16:18:58.403Z,7.05
2022-12-29T16:21:29.467Z,11.18
2022-12-29T16:23:59.755Z,5.05
2022-12-29T16:26:27.305Z,6.32
2022-12-29T16:28:59.152Z,8.50
2022-12-29T16:31:33.461Z,7.75
2022-12-29T16:34:31.094Z,6.68
2022-12-29T16:37:01.929Z,6.93
2022-12-29T16:39:34.202Z,6.15
2022-12-29T16:42:01.738Z,7.28
2022-12-29T16:44:31.011Z,5.15
2022-12-29T16:47:03.180Z,4.13
2022-12-29T16:49:32.544Z,7.40
2022-12-29T16:52:01.383Z,6.70
2022-12-29T16:54:33.669Z,10.80
2022-12-29T16:57:01.071Z,5.85
2022-12-29T16:59:39.360Z,6.97
2022-12-29T17:02:09.185Z,6.22
2022-12-29T17:04:36.906Z,8.32
2022-12-29T17:07:10.255Z,5.57
2022-12-29T17:09:37.699Z,6.35
2022-12-29T17:12:11.343Z,7.95
2022-12-29T17:14:46.319Z,5.85
2022-12-29T17:17:22.664Z,6.05
2022-12-29T17:19:55.316Z,7.40
2022-12-29T17:22:26.928Z,7.32
2022-12-29T17:24:55.090Z,9.23
2022-12-29T17:27:30.733Z,9.05
2022-12-29T17:30:06.832Z,4.97
2022-12-29T17:32:35.187Z,4.80
2022-12-29T17:35:02.692Z,10.57
2022-12-29T17:37:35.416Z,4.95
2022-12-29T17:40:03.998Z,6.35
2022-12-29T17:42:33.073Z,6.55
2022-12-29T17:45:01.999Z,4.95
2022-12-29T17:47:29.587Z,6.00
2022-12-29T17:49:56.945Z,4.47
2022-12-29T17:52:24.417Z,4.85
2022-12-29T17:54:53.554Z,4.90
2022-12-29T17:57:22.238Z,5.13
2022-12-29T17:59:49.989Z,3.85
2022-12-29T18:02:31.407Z,4.75
2022-12-29T18:04:59.301Z,4.60
2022-12-29T18:07:33.860Z,6.30
2022-12-29T18:10:03.956Z,7.10
2022-12-29T18:12:40.334Z,6.68
2022-12-29T18:15:17.605Z,8.93
2022-12-29T18:17:45.468Z,5.30
2022-12-29T18:20:12.881Z,8.07
2022-12-29T18:22:40.331Z,8.90
2022-12-29T18:25:21.816Z,3.45
2022-12-29T18:27:49.318Z,6.38
2022-12-29T18:30:17.411Z,7.15
2022-12-29T18:32:44.802Z,9.55
2022-12-29T18:35:38.275Z,6.35
2022-12-29T18:38:08.481Z,5.93
2022-12-29T18:40:36.114Z,8.32
2022-12-29T18:43:03.662Z,7.28
2022-12-29T18:45:33.142Z,5.20
2022-12-29T18:48:00.928Z,7.30
2022-12-29T18:50:28.372Z,6.05
2022-12-29T18:53:00.145Z,9.15
2022-12-29T18:55:33.421Z,9.45
2022-12-29T18:58:00.831Z,6.03
2022-12-29T19:00:28.195Z,8.13
2022-12-29T19:02:55.643Z,7.28
2022-12-29T19:05:39.731Z,8.82
2022-12-29T19:08:07.294Z,5.32
2022-12-29T19:10:37.976Z,7.50
2022-12-29T19:13:05.654Z,7.90
2022-12-29T19:15:39.844Z,5.13
2022-12-29T19:18:42.337Z,4.72
2022-12-29T19:20:59.611Z,6.93
2022-12-29T19:23:27.079Z,7.43
2022-12-29T19:25:54.850Z,4.72
2022-12-29T19:28:23.294Z,5.30
2022-12-29T19:30:52.872Z,10.07
2022-12-29T19:33:21.378Z,6.63
2022-12-29T19:35:49.455Z,4.10
2022-12-29T19:38:17.090Z,5.82
2022-12-29T19:40:46.237Z,5.03
2022-12-29T19:43:13.945Z,8.15
2022-12-29T19:45:42.001Z,9.98
2022-12-29T19:48:12.652Z,8.43
2022-12-29T19:50:42.632Z,7.78
2022-12-29T19:53:10.237Z,13.90
2022-12-29T19:55:37.718Z,13.38
2022-12-29T19:58:07.685Z,9.13
2022-12-29T20:00:35.408Z,7.35
2022-12-29T20:03:03.132Z,8.38
2022-12-29T20:05:30.747Z,8.85
2022-12-29T20:07:58.410Z,4.68
2022-12-29T20:12:05.316Z,5.30
2022-12-29T20:14:33.165Z,6.47
2022-12-29T20:17:11.193Z,5.53
2022-12-29T20:19:39.614Z,5.57
2022-12-29T20:22:07.956Z,11.00
2022-12-29T20:24:36.470Z,6.80
2022-12-29T20:27:04.854Z,6.80
2022-12-29T20:29:39.727Z,7.70
2022-12-29T20:32:09.204Z,8.52
2022-12-29T20:34:37.338Z,5.85
2022-12-29T20:37:04.908Z,9.60
2022-12-29T20:39:32.843Z,6.85
2022-12-29T20:42:00.282Z,10.90
2022-12-29T20:44:29.034Z,7.00
2022-12-29T20:46:57.482Z,7.65
2022-12-29T20:49:30.036Z,5.80
2022-12-29T20:52:06.427Z,9.10
2022-12-29T20:54:39.503Z,6.53
2022-12-29T20:57:07.482Z,10.05
2022-12-29T20:59:36.518Z,7.00
2022-12-29T21:02:04.290Z,3.78
2022-12-29T21:04:57.666Z,4.13
2022-12-29T21:10:03.805Z,9.35
2022-12-29T21:12:32.569Z,6.88
2022-12-29T21:15:00.712Z,5.25
2022-12-29T21:17:28.206Z,8.35
2022-12-29T21:19:55.743Z,5.72
2022-12-29T21:22:23.228Z,5.82
2022-12-29T21:24:50.746Z,10.10
2022-12-29T21:27:18.751Z,10.73
2022-12-29T21:29:46.107Z,9.25
2022-12-29T21:32:14.144Z,8.95
2022-12-29T21:34:41.813Z,8.80
2022-12-29T21:37:09.267Z,7.80
2022-12-29T21:39:38.697Z,6.45
2022-12-29T21:42:06.999Z,8.00
2022-12-29T21:44:53.218Z,7.43
2022-12-29T21:47:20.777Z,8.15
2022-12-29T21:49:48.526Z,6.25
2022-12-29T21:52:16.128Z,7.68
2022-12-29T21:55:02.105Z,12.85
2022-12-29T21:57:48.121Z,4.90
2022-12-29T22:00:34.743Z,8.98
2022-12-29T22:03:23.855Z,5.80
2022-12-29T22:06:24.381Z,6.68
2022-12-29T22:09:17.050Z,6.18
2022-12-29T22:12:03.210Z,5.78
2022-12-29T22:14:30.807Z,5.93
2022-12-29T22:16:58.730Z,6.88
2022-12-29T22:19:26.150Z,10.27
2022-12-29T22:21:53.747Z,8.25
2022-12-29T22:24:21.133Z,7.40
2022-12-29T22:26:48.852Z,5.00
2022-12-29T22:29:16.305Z,10.98
2022-12-29T22:31:44.192Z,6.82
2022-12-29T22:34:11.655Z,9.10
2022-12-29T22:36:39.203Z,7.35
2022-12-29T22:39:06.935Z,7.93
2022-12-29T22:41:34.505Z,8.13
2022-12-29T22:44:02.220Z,7.63
2022-12-29T22:46:29.936Z,11.90
2022-12-29T22:48:58.369Z,9.80
2022-12-29T22:51:26.561Z,7.80
2022-12-29T22:53:54.274Z,12.13
2022-12-29T22:56:21.992Z,9.52
2022-12-29T22:58:51.399Z,5.88
2022-12-29T23:01:22.207Z,8.38
2022-12-29T23:03:50.227Z,9.35
2022-12-29T23:06:18.040Z,8.63
2022-12-29T23:08:47.484Z,7.85
2022-12-29T23:11:14.984Z,5.63
2022-12-29T23:13:45.133Z,8.40
2022-12-29T23:16:13.229Z,5.30
2022-12-29T23:18:40.841Z,4.78
2022-12-29T23:21:08.441Z,5.72
2022-12-29T23:23:55.098Z,9.98
2022-12-29T23:26:24.865Z,8.13
2022-12-29T23:28:57.995Z,5.00
2022-12-29T23:31:27.913Z,9.07
2022-12-29T23:33:56.515Z,5.55
2022-12-29T23:36:26.943Z,7.32
2022-12-29T23:38:54.576Z,4.85
2022-12-29T23:41:22.645Z,7.40
2022-12-29T23:43:53.178Z,7.30
2022-12-29T23:46:25.377Z,3.75
2022-12-29T23:48:53.030Z,7.43
2022-12-29T23:51:20.495Z,9.13
2022-12-29T23:53:48.296Z,8.52
2022-12-29T23:56:19.599Z,12.02
2022-12-29T23:58:47.782Z,9.57
